createdAt,value
2019-03-24T00:00:30.392Z,30.20
2019-03-24T00:02:58.849Z,30.65
2019-03-24T00:05:27.298Z,31.60
2019-03-24T00:07:56.852Z,31.27
2019-03-24T00:10:25.561Z,32.33
2019-03-24T00:12:54.009Z,30.05
2019-03-24T00:15:26.497Z,32.73
2019-03-24T00:17:52.696Z,32.60
2019-03-24T00:20:21.133Z,31.17
2019-03-24T00:22:49.576Z,31.87
2019-03-24T00:25:18.013Z,32.20
2019-03-24T00:27:46.461Z,31.90
2019-03-24T00:30:15.510Z,31.80
2019-03-24T00:32:44.011Z,34.33
2019-03-24T00:35:12.580Z,31.60
2019-03-24T00:37:41.024Z,32.85
2019-03-24T00:40:10.037Z,31.48
2019-03-24T00:42:38.515Z,31.15
2019-03-24T00:45:10.562Z,29.65
2019-03-24T00:47:39.005Z,29.45
2019-03-24T00:50:07.914Z,31.60
2019-03-24T00:52:36.341Z,28.15
2019-03-24T00:55:06.953Z,29.55
2019-03-24T00:57:37.492Z,29.27
2019-03-24T01:00:07.521Z,29.92
2019-03-24T01:02:35.949Z,29.20
2019-03-24T01:05:06.337Z,29.80
2019-03-24T01:07:34.908Z,29.55
2019-03-24T01:10:04.889Z,28.02
2019-03-24T01:12:33.329Z,28.77
2019-03-24T01:15:01.773Z,27.05
2019-03-24T01:17:30.205Z,26.68
2019-03-24T01:19:58.665Z,28.07
2019-03-24T01:22:27.230Z,28.70
2019-03-24T01:24:55.674Z,27.52
2019-03-24T01:27:24.110Z,27.50
2019-03-24T01:29:52.571Z,26.20
2019-03-24T01:32:20.997Z,28.95
2019-03-24T01:34:49.441Z,29.65
2019-03-24T01:37:17.873Z,30.25
2019-03-24T01:39:46.572Z,26.50
2019-03-24T01:42:15.005Z,28.12
2019-03-24T01:44:43.449Z,28.80
2019-03-24T01:47:11.879Z,29.67
2019-03-24T01:49:40.326Z,25.88
2019-03-24T01:52:08.759Z,28.77
2019-03-24T01:54:37.545Z,27.58
2019-03-24T01:57:25.317Z,25.90
2019-03-24T01:59:53.764Z,26.93
2019-03-24T02:02:22.265Z,26.25
2019-03-24T02:04:50.704Z,25.75
2019-03-24T02:07:19.275Z,28.25
2019-03-24T02:09:48.184Z,25.85
2019-03-24T02:12:16.623Z,25.88
2019-03-24T02:14:45.153Z,24.35
2019-03-24T02:17:13.894Z,27.02
2019-03-24T02:19:42.324Z,26.02
2019-03-24T02:22:10.788Z,26.82
2019-03-24T02:24:39.212Z,28.60
2019-03-24T02:27:08.028Z,26.40
2019-03-24T02:29:36.468Z,25.55
2019-03-24T02:32:05.063Z,25.15
2019-03-24T02:34:33.505Z,28.98
2019-03-24T02:37:01.942Z,26.00
2019-03-24T02:39:30.382Z,26.27
2019-03-24T02:41:59.281Z,28.80
2019-03-24T02:44:27.718Z,28.47
2019-03-24T02:46:56.239Z,24.82
2019-03-24T02:49:24.676Z,26.57
2019-03-24T02:51:53.114Z,25.12
2019-03-24T02:54:21.547Z,26.60
2019-03-24T02:56:49.990Z,25.55
2019-03-24T02:59:18.418Z,26.40
2019-03-24T03:01:46.867Z,27.02
2019-03-24T03:04:15.297Z,27.37
2019-03-24T03:06:43.749Z,23.92
2019-03-24T03:09:12.242Z,26.45
2019-03-24T03:11:40.705Z,25.95
2019-03-24T03:14:09.198Z,25.35
2019-03-24T03:16:39.076Z,27.25
2019-03-24T03:19:08.303Z,25.82
2019-03-24T03:21:36.757Z,27.60
2019-03-24T03:24:05.583Z,27.82
2019-03-24T03:26:34.042Z,15.32
2019-03-24T03:29:02.547Z,20.65
2019-03-24T03:31:30.993Z,27.58
2019-03-24T03:33:59.433Z,24.23
2019-03-24T03:36:28.203Z,26.90
2019-03-24T03:38:56.763Z,26.40
2019-03-24T03:41:26.484Z,27.30
2019-03-24T03:43:54.910Z,25.72
2019-03-24T03:46:23.354Z,27.13
2019-03-24T03:48:51.789Z,27.17
2019-03-24T03:51:20.259Z,27.40
2019-03-24T03:53:48.692Z,29.65
2019-03-24T03:56:17.152Z,31.23
2019-03-24T03:58:45.601Z,28.75
2019-03-24T04:01:14.094Z,28.23
2019-03-24T04:03:42.540Z,27.00
2019-03-24T04:06:10.984Z,27.67
2019-03-24T04:08:39.776Z,28.85
2019-03-24T04:11:08.247Z,26.37
2019-03-24T04:13:36.766Z,27.05
2019-03-24T04:16:05.194Z,26.13
2019-03-24T04:18:33.738Z,24.15
2019-03-24T04:21:02.173Z,23.00
2019-03-24T04:23:30.636Z,21.75
2019-03-24T04:25:59.351Z,25.23
2019-03-24T04:28:27.790Z,26.12
2019-03-24T04:30:56.227Z,24.85
2019-03-24T04:33:24.695Z,25.62
2019-03-24T04:35:53.127Z,24.57
2019-03-24T04:38:21.581Z,24.23
2019-03-24T04:40:50.018Z,25.48
2019-03-24T04:43:18.482Z,26.17
2019-03-24T04:45:46.913Z,24.45
2019-03-24T04:48:15.360Z,24.50
2019-03-24T04:50:43.785Z,24.57
2019-03-24T04:53:12.257Z,24.43
2019-03-24T04:55:40.686Z,23.12
2019-03-24T04:58:09.152Z,22.75
2019-03-24T05:00:39.225Z,23.95
2019-03-24T05:03:07.754Z,22.60
2019-03-24T05:05:36.246Z,21.87
2019-03-24T05:08:05.101Z,21.48
2019-03-24T05:10:34.101Z,21.55
2019-03-24T05:13:02.545Z,20.48
2019-03-24T05:15:30.981Z,19.50
2019-03-24T05:17:59.431Z,24.30
2019-03-24T05:20:28.198Z,23.75
2019-03-24T05:22:56.645Z,24.15
2019-03-24T05:25:25.077Z,26.77
2019-03-24T05:27:53.528Z,28.35
2019-03-24T05:30:22.221Z,24.43
2019-03-24T05:32:51.033Z,26.25
2019-03-24T05:35:19.461Z,25.85
2019-03-24T05:37:47.893Z,26.87
2019-03-24T05:40:16.332Z,27.98
2019-03-24T05:42:45.050Z,25.48
2019-03-24T05:45:15.032Z,27.05
2019-03-24T05:47:43.461Z,25.23
2019-03-24T05:50:12.150Z,24.07
2019-03-24T05:52:40.585Z,23.02
2019-03-24T05:55:09.116Z,22.58
2019-03-24T05:57:37.553Z,21.33
2019-03-24T06:00:07.652Z,19.80
2019-03-24T06:02:36.092Z,23.98
2019-03-24T06:05:06.473Z,19.60
2019-03-24T06:07:34.905Z,23.15
2019-03-24T06:10:04.425Z,20.02
2019-03-24T06:12:32.865Z,21.45
2019-03-24T06:15:01.313Z,21.80
2019-03-24T06:17:29.746Z,21.37
2019-03-24T06:19:58.193Z,19.45
2019-03-24T06:22:26.625Z,19.67
2019-03-24T06:24:55.125Z,19.30
2019-03-24T06:27:23.560Z,19.65
2019-03-24T06:29:52.011Z,24.37
2019-03-24T06:32:20.437Z,21.15
2019-03-24T06:34:48.903Z,21.90
2019-03-24T06:37:17.333Z,23.32
2019-03-24T06:39:45.797Z,22.30
2019-03-24T06:42:14.554Z,24.02
2019-03-24T06:44:43.339Z,24.50
2019-03-24T06:47:11.768Z,22.15
2019-03-24T06:49:40.217Z,22.50
2019-03-24T06:52:08.659Z,27.58
2019-03-24T06:54:37.175Z,23.35
2019-03-24T06:57:05.605Z,23.92
2019-03-24T06:59:34.048Z,20.02
2019-03-24T07:02:02.476Z,20.57
2019-03-24T07:04:30.927Z,22.98
2019-03-24T07:06:59.360Z,19.48
2019-03-24T07:09:27.800Z,18.00
2019-03-24T07:11:56.234Z,18.50
2019-03-24T07:14:25.031Z,17.82
2019-03-24T07:16:53.461Z,18.65
2019-03-24T07:19:41.253Z,17.15
2019-03-24T07:22:09.680Z,16.35
2019-03-24T07:24:38.127Z,15.88
2019-03-24T07:27:06.558Z,14.65
2019-03-24T07:29:35.013Z,14.63
2019-03-24T07:32:03.450Z,14.55
2019-03-24T07:34:32.221Z,14.65
2019-03-24T07:37:00.742Z,14.80
2019-03-24T07:39:29.177Z,13.75
2019-03-24T07:41:57.617Z,13.72
2019-03-24T07:44:26.052Z,11.63
2019-03-24T07:46:54.497Z,11.18
2019-03-24T07:49:22.929Z,10.43
2019-03-24T07:51:51.441Z,9.78
2019-03-24T07:54:19.865Z,9.80
2019-03-24T07:56:48.309Z,9.10
2019-03-24T07:59:16.742Z,9.15
2019-03-24T08:01:48.332Z,8.73
2019-03-24T08:04:17.069Z,9.50
2019-03-24T08:06:45.539Z,9.28
2019-03-24T08:09:15.494Z,8.78
2019-03-24T08:11:43.961Z,8.08
2019-03-24T08:14:12.386Z,9.25
2019-03-24T08:16:40.829Z,8.93
2019-03-24T08:19:09.249Z,9.45
2019-03-24T08:21:37.697Z,9.38
2019-03-24T08:24:06.130Z,9.55
2019-03-24T08:26:34.569Z,9.63
2019-03-24T08:29:03.011Z,8.70
2019-03-24T08:31:31.445Z,9.70
2019-03-24T08:33:59.873Z,10.05
2019-03-24T08:36:28.322Z,9.98
2019-03-24T08:38:56.749Z,10.98
2019-03-24T08:41:25.193Z,11.43
2019-03-24T08:43:53.884Z,11.33
2019-03-24T08:46:22.326Z,10.68
2019-03-24T08:48:50.757Z,10.53
2019-03-24T08:51:19.204Z,11.45
2019-03-24T08:53:47.633Z,11.85
2019-03-24T08:56:16.078Z,11.33
2019-03-24T08:58:44.514Z,12.75
2019-03-24T09:01:12.962Z,12.00
2019-03-24T09:03:41.402Z,13.00
2019-03-24T09:06:09.854Z,13.47
2019-03-24T09:08:38.357Z,13.98
2019-03-24T09:11:06.877Z,15.40
2019-03-24T09:13:35.305Z,15.65
2019-03-24T09:16:03.744Z,15.88
2019-03-24T09:18:32.192Z,14.98
2019-03-24T09:21:00.945Z,15.75
2019-03-24T09:23:29.393Z,17.40
2019-03-24T09:25:58.754Z,19.23
2019-03-24T09:28:27.201Z,17.75
2019-03-24T09:30:55.637Z,18.40
2019-03-24T09:33:24.090Z,19.30
2019-03-24T09:35:52.525Z,19.02
2019-03-24T09:38:20.983Z,19.32
2019-03-24T09:40:49.409Z,19.10
2019-03-24T09:43:17.862Z,18.73
2019-03-24T09:45:46.297Z,18.70
2019-03-24T09:48:15.103Z,17.73
2019-03-24T09:50:43.577Z,18.02
2019-03-24T09:53:12.020Z,17.92
2019-03-24T09:55:40.801Z,18.80
2019-03-24T09:58:09.585Z,18.82
2019-03-24T10:00:39.663Z,18.23
2019-03-24T10:03:08.293Z,19.62
2019-03-24T10:05:36.724Z,19.23
2019-03-24T10:08:24.505Z,18.95
2019-03-24T10:10:53.199Z,18.35
2019-03-24T10:13:21.646Z,17.85
2019-03-24T10:15:50.153Z,17.98
2019-03-24T10:18:18.673Z,18.82
2019-03-24T10:20:47.107Z,17.77
2019-03-24T10:23:15.561Z,17.40
2019-03-24T10:25:43.997Z,18.12
2019-03-24T10:28:12.450Z,18.75
2019-03-24T10:30:40.877Z,17.23
2019-03-24T10:33:09.330Z,18.02
2019-03-24T10:35:37.762Z,18.73
2019-03-24T10:38:06.211Z,19.12
2019-03-24T10:40:34.730Z,18.87
2019-03-24T10:43:03.178Z,18.40
2019-03-24T10:45:31.662Z,18.73
2019-03-24T10:48:00.125Z,19.10
2019-03-24T10:50:28.902Z,19.42
2019-03-24T10:52:57.373Z,20.68
2019-03-24T10:55:25.804Z,21.12
2019-03-24T10:57:54.248Z,21.17
2019-03-24T11:00:31.363Z,24.70
2019-03-24T11:02:59.899Z,23.12
2019-03-24T11:05:28.329Z,21.90
2019-03-24T11:07:56.782Z,21.48
2019-03-24T11:10:25.213Z,23.05
2019-03-24T11:12:53.663Z,25.00
2019-03-24T11:15:22.103Z,24.77
2019-03-24T11:17:50.549Z,25.80
2019-03-24T11:20:18.986Z,25.15
2019-03-24T11:22:47.433Z,26.97
2019-03-24T11:25:18.306Z,25.77
2019-03-24T11:27:47.228Z,25.77
2019-03-24T11:30:16.374Z,28.23
2019-03-24T11:32:45.573Z,28.85
2019-03-24T11:35:14.513Z,28.85
2019-03-24T11:37:43.445Z,29.77
2019-03-24T11:40:13.269Z,29.70
2019-03-24T11:42:42.091Z,29.90
2019-03-24T11:45:12.018Z,29.30
2019-03-24T11:47:40.778Z,28.62
2019-03-24T11:50:10.797Z,28.23
2019-03-24T11:52:39.316Z,30.35
2019-03-24T11:55:09.409Z,30.82
2019-03-24T11:57:37.845Z,31.40
2019-03-24T12:00:16.761Z,30.23
2019-03-24T12:02:45.205Z,31.20
2019-03-24T12:05:13.753Z,30.32
2019-03-24T12:07:42.278Z,30.32
2019-03-24T12:10:13.091Z,30.70
2019-03-24T12:12:41.583Z,29.55
2019-03-24T12:15:10.685Z,28.85
2019-03-24T12:17:39.154Z,27.67
2019-03-24T12:20:09.674Z,29.65
2019-03-24T12:22:38.114Z,29.70
2019-03-24T12:25:08.753Z,31.33
2019-03-24T12:27:37.190Z,32.08
2019-03-24T12:30:07.881Z,32.65
2019-03-24T12:32:36.369Z,33.33
2019-03-24T12:35:08.283Z,33.92
2019-03-24T12:37:36.710Z,33.70
2019-03-24T12:40:07.386Z,33.50
2019-03-24T12:42:35.817Z,33.13
2019-03-24T12:45:09.407Z,32.98
2019-03-24T12:47:37.837Z,33.33
2019-03-24T12:50:10.272Z,34.00
2019-03-24T12:52:38.949Z,33.83
2019-03-24T12:55:07.922Z,32.33
2019-03-24T12:57:36.353Z,32.33
2019-03-24T13:00:10.468Z,32.78
2019-03-24T13:02:38.900Z,32.08
2019-03-24T13:05:08.789Z,33.73
2019-03-24T13:07:37.302Z,32.85
2019-03-24T13:10:06.487Z,33.18
2019-03-24T13:12:34.925Z,32.55
2019-03-24T13:15:04.922Z,32.42
2019-03-24T13:17:33.350Z,33.00
2019-03-24T13:20:02.125Z,32.38
2019-03-24T13:22:30.631Z,31.60
2019-03-24T13:24:59.070Z,31.73
2019-03-24T13:27:27.521Z,33.70
2019-03-24T13:29:55.957Z,30.92
2019-03-24T13:32:24.401Z,30.77
2019-03-24T13:34:52.837Z,33.35
2019-03-24T13:37:21.302Z,32.42
2019-03-24T13:39:49.774Z,31.90
2019-03-24T13:42:18.210Z,31.87
2019-03-24T13:44:46.659Z,30.95
2019-03-24T13:47:15.111Z,32.58
2019-03-24T13:49:43.541Z,31.55
2019-03-24T13:52:12.258Z,30.40
2019-03-24T13:54:40.698Z,30.92
2019-03-24T13:57:09.146Z,31.75
2019-03-24T13:59:37.578Z,33.25
2019-03-24T14:02:06.377Z,33.18
2019-03-24T14:04:34.801Z,32.58
2019-03-24T14:07:03.263Z,33.70
2019-03-24T14:09:31.685Z,33.73
2019-03-24T14:12:00.136Z,32.50
2019-03-24T14:14:28.569Z,34.20
2019-03-24T14:16:57.027Z,32.45
2019-03-24T14:19:25.458Z,36.15
2019-03-24T14:21:53.907Z,33.75
2019-03-24T14:24:22.637Z,33.80
2019-03-24T14:26:51.087Z,33.70
2019-03-24T14:29:19.560Z,33.78
2019-03-24T14:31:48.049Z,32.30
2019-03-24T14:34:16.481Z,33.65
2019-03-24T14:36:44.941Z,33.58
2019-03-24T14:39:13.618Z,32.35
2019-03-24T14:41:42.070Z,32.03
2019-03-24T14:44:10.505Z,33.40
2019-03-24T14:46:38.958Z,31.25
2019-03-24T14:49:07.760Z,31.57
2019-03-24T14:51:36.210Z,32.48
2019-03-24T14:54:04.722Z,31.15
2019-03-24T14:56:34.137Z,32.48
2019-03-24T14:59:02.769Z,31.45
2019-03-24T15:01:31.216Z,31.73
2019-03-24T15:03:59.665Z,31.68
2019-03-24T15:06:28.105Z,30.82
2019-03-24T15:08:56.562Z,31.07
2019-03-24T15:11:25.010Z,30.55
2019-03-24T15:13:53.456Z,30.77
2019-03-24T15:16:22.208Z,31.00
2019-03-24T15:18:50.656Z,29.27
2019-03-24T15:21:19.090Z,28.50
2019-03-24T15:23:47.537Z,29.95
2019-03-24T15:26:15.978Z,29.20
2019-03-24T15:28:44.438Z,29.72
2019-03-24T15:31:13.178Z,30.40
2019-03-24T15:33:41.627Z,28.65
2019-03-24T15:36:10.065Z,29.70
2019-03-24T15:38:38.770Z,30.27
2019-03-24T15:41:07.206Z,30.00
2019-03-24T15:43:35.658Z,30.20
2019-03-24T15:46:04.088Z,30.17
2019-03-24T15:48:32.538Z,32.55
2019-03-24T15:51:00.973Z,30.57
2019-03-24T15:53:29.421Z,31.82
2019-03-24T15:55:57.857Z,31.33
2019-03-24T15:58:26.301Z,31.25
2019-03-24T16:00:54.736Z,31.27
2019-03-24T16:03:23.186Z,31.33
2019-03-24T16:05:51.621Z,32.42
2019-03-24T16:08:20.072Z,32.48
2019-03-24T16:10:48.501Z,33.67
2019-03-24T16:13:16.974Z,32.58
2019-03-24T16:15:45.425Z,33.50
2019-03-24T16:18:13.924Z,32.93
2019-03-24T16:20:42.380Z,33.70
2019-03-24T16:23:10.834Z,32.65
2019-03-24T16:25:39.273Z,32.55
2019-03-24T16:28:07.745Z,33.78
2019-03-24T16:30:36.536Z,33.38
2019-03-24T16:33:05.115Z,33.70
2019-03-24T16:35:33.583Z,31.95
2019-03-24T16:38:02.285Z,33.73
2019-03-24T16:40:30.753Z,33.42
2019-03-24T16:42:59.194Z,33.63
2019-03-24T16:45:27.633Z,33.75
2019-03-24T16:47:56.089Z,33.75
2019-03-24T16:50:24.536Z,35.50
2019-03-24T16:52:52.973Z,35.38
2019-03-24T16:55:21.447Z,35.48
2019-03-24T16:57:50.019Z,34.45
2019-03-24T17:00:18.996Z,34.48
2019-03-24T17:02:47.622Z,34.00
2019-03-24T17:05:16.149Z,34.75
2019-03-24T17:07:44.655Z,34.92
2019-03-24T17:10:13.446Z,33.02
2019-03-24T17:12:41.882Z,35.35
2019-03-24T17:15:10.773Z,37.42
2019-03-24T17:17:39.465Z,34.50
2019-03-24T17:20:08.930Z,35.40
2019-03-24T17:22:37.444Z,34.95
2019-03-24T17:25:06.514Z,35.00
2019-03-24T17:27:34.957Z,35.60
2019-03-24T17:30:04.726Z,34.08
2019-03-24T17:32:33.262Z,35.00
2019-03-24T17:35:01.730Z,35.92
2019-03-24T17:37:30.179Z,33.98
2019-03-24T17:39:58.933Z,33.73
2019-03-24T17:42:27.377Z,35.40
2019-03-24T17:44:55.897Z,34.78
2019-03-24T17:47:24.336Z,32.85
2019-03-24T17:49:52.784Z,33.78
2019-03-24T17:52:21.588Z,33.20
2019-03-24T17:54:50.585Z,31.60
2019-03-24T17:57:19.129Z,34.70
2019-03-24T17:59:47.581Z,32.20
2019-03-24T18:02:16.029Z,33.58
2019-03-24T18:04:44.545Z,35.92
2019-03-24T18:07:13.259Z,34.92
2019-03-24T18:09:41.693Z,32.65
2019-03-24T18:12:10.394Z,33.65
2019-03-24T18:14:39.117Z,33.48
2019-03-24T18:17:07.633Z,34.30
2019-03-24T18:19:36.069Z,32.88
2019-03-24T18:22:11.646Z,32.73
2019-03-24T18:24:34.685Z,30.40
2019-03-24T18:27:03.140Z,33.00
2019-03-24T18:29:31.570Z,30.92
2019-03-24T18:32:00.335Z,31.68
2019-03-24T18:34:28.761Z,32.65
2019-03-24T18:36:57.219Z,32.30
2019-03-24T18:39:25.649Z,32.08
2019-03-24T18:41:54.357Z,30.30
2019-03-24T18:44:22.885Z,31.77
2019-03-24T18:46:51.338Z,29.65
2019-03-24T18:49:19.773Z,32.23
2019-03-24T18:51:48.226Z,31.20
2019-03-24T18:54:16.674Z,34.15
2019-03-24T18:56:45.188Z,32.67
2019-03-24T18:59:13.616Z,32.58
2019-03-24T19:01:42.733Z,28.42
2019-03-24T19:04:12.101Z,31.82
2019-03-24T19:06:41.397Z,32.93
2019-03-24T19:09:10.287Z,30.85
2019-03-24T19:11:39.647Z,30.15
2019-03-24T19:14:08.133Z,33.10
2019-03-24T19:16:36.590Z,31.95
2019-03-24T19:19:05.092Z,35.00
2019-03-24T19:21:33.706Z,32.53
2019-03-24T19:24:02.146Z,30.57
2019-03-24T19:26:30.598Z,31.77
2019-03-24T19:28:59.285Z,33.88
2019-03-24T19:31:27.947Z,31.00
2019-03-24T19:33:56.534Z,33.98
2019-03-24T19:36:25.050Z,30.75
2019-03-24T19:38:53.823Z,33.42
2019-03-24T19:41:22.533Z,32.03
2019-03-24T19:43:50.967Z,33.00
2019-03-24T19:46:19.413Z,31.50
2019-03-24T19:48:47.844Z,33.20
2019-03-24T19:51:16.282Z,33.88
2019-03-24T19:53:44.733Z,34.67
2019-03-24T19:56:13.169Z,34.13
2019-03-24T19:58:41.618Z,34.03
2019-03-24T20:01:10.057Z,31.73
2019-03-24T20:03:38.586Z,32.23
2019-03-24T20:06:07.094Z,31.10
2019-03-24T20:08:35.542Z,35.30
2019-03-24T20:11:04.218Z,33.37
2019-03-24T20:13:32.671Z,33.98
2019-03-24T20:16:01.104Z,35.58
2019-03-24T20:18:29.555Z,36.05
2019-03-24T20:20:58.678Z,34.66
2019-03-24T20:23:27.147Z,37.90
2019-03-24T20:25:55.910Z,34.45
2019-03-24T20:28:24.416Z,37.20
2019-03-24T20:30:53.181Z,34.85
2019-03-24T20:33:21.629Z,32.88
2019-03-24T20:35:50.065Z,37.63
2019-03-24T20:38:18.521Z,37.42
2019-03-24T20:40:47.213Z,37.98
2019-03-24T20:43:15.685Z,39.15
2019-03-24T20:45:44.482Z,39.88
2019-03-24T20:48:12.935Z,39.88
2019-03-24T20:50:41.426Z,38.92
2019-03-24T20:53:17.974Z,40.88
2019-03-24T20:55:40.066Z,41.20
2019-03-24T20:58:08.536Z,41.45
2019-03-24T21:00:37.409Z,45.92
2019-03-24T21:03:07.593Z,45.25
2019-03-24T21:05:36.370Z,44.38
2019-03-24T21:08:04.977Z,44.80
2019-03-24T21:10:33.482Z,43.58
2019-03-24T21:13:01.930Z,44.38
2019-03-24T21:15:30.367Z,44.33
2019-03-24T21:17:58.838Z,44.42
2019-03-24T21:20:27.273Z,44.27
2019-03-24T21:22:55.741Z,45.40
2019-03-24T21:25:24.185Z,44.85
2019-03-24T21:27:52.917Z,45.17
2019-03-24T21:30:24.486Z,46.48
2019-03-24T21:32:52.961Z,47.50
2019-03-24T21:35:21.397Z,45.50
2019-03-24T21:37:49.832Z,45.95
2019-03-24T21:40:18.285Z,46.73
2019-03-24T21:42:46.726Z,49.80
2019-03-24T21:45:15.518Z,47.80
2019-03-24T21:47:44.033Z,47.93
2019-03-24T21:50:13.205Z,49.27
2019-03-24T21:52:41.718Z,46.83
2019-03-24T21:55:10.306Z,46.75
2019-03-24T21:57:38.751Z,49.03
2019-03-24T22:00:09.385Z,47.65
2019-03-24T22:02:37.897Z,49.27
2019-03-24T22:05:06.781Z,47.83
2019-03-24T22:07:35.297Z,47.53
2019-03-24T22:10:05.970Z,47.30
2019-03-24T22:12:34.663Z,44.50
2019-03-24T22:15:03.261Z,46.53
2019-03-24T22:17:31.705Z,43.55
2019-03-24T22:20:00.511Z,45.12
2019-03-24T22:22:28.947Z,43.60
2019-03-24T22:24:57.394Z,44.83
2019-03-24T22:27:25.834Z,42.35
2019-03-24T22:29:54.282Z,45.12
2019-03-24T22:32:22.720Z,43.45
2019-03-24T22:34:51.174Z,43.80
2019-03-24T22:37:19.990Z,44.88
2019-03-24T22:39:48.453Z,42.53
2019-03-24T22:42:16.889Z,44.13
2019-03-24T22:44:45.350Z,44.38
2019-03-24T22:47:14.142Z,44.77
2019-03-24T22:49:42.617Z,44.60
2019-03-24T22:52:11.057Z,46.37
2019-03-24T22:54:39.515Z,46.88
2019-03-24T22:57:07.953Z,45.50
2019-03-24T22:59:36.401Z,45.95
2019-03-24T23:02:05.176Z,46.13
2019-03-24T23:04:33.705Z,47.25
2019-03-24T23:07:02.137Z,47.27
2019-03-24T23:09:30.663Z,47.20
2019-03-24T23:11:59.269Z,45.52
2019-03-24T23:14:27.721Z,48.10
2019-03-24T23:16:56.156Z,47.85
2019-03-24T23:19:24.611Z,48.13
2019-03-24T23:21:53.051Z,47.23
2019-03-24T23:24:21.513Z,48.75
2019-03-24T23:26:49.956Z,47.88
2019-03-24T23:29:18.401Z,48.98
2019-03-24T23:31:46.833Z,48.35
2019-03-24T23:34:15.285Z,49.48
2019-03-24T23:36:43.724Z,50.10
2019-03-24T23:39:12.170Z,49.73
2019-03-24T23:41:40.612Z,50.15
2019-03-24T23:44:09.113Z,51.75
2019-03-24T23:46:37.566Z,51.88
2019-03-24T23:49:06.042Z,50.70
2019-03-24T23:51:34.530Z,52.83
2019-03-24T23:54:02.961Z,49.73
2019-03-24T23:56:31.408Z,50.25
2019-03-24T23:58:59.841Z,51.63
